Time;durP1;ratioP1;P1;durP2;ratioP2;P2;SDS_P1;SDS_P2;PMS_P1;PMS_P2;Temp;Humidity;BMP_temperature;BMP_pressure;BME280_temperature;BME280_humidity;BME280_pressure;Samples;Min_cycle;Max_cycle;Signal;HPM_P1;HPM_P2
2022/06/20 00:01:16;;;;;;;11.03;7.90;;;25.70;61.50;;;;;;7370242;19;21076;-45
2022/06/20 00:03:49;;;;;;;11.07;7.90;;;25.80;61.20;;;;;;7378721;19;20391;-45
2022/06/20 00:06:20;;;;;;;12.27;7.97;;;25.80;61.60;;;;;;7365654;19;20408;-44
2022/06/20 00:08:51;;;;;;;12.43;7.17;;;25.70;62.20;;;;;;7377926;19;20389;-45
2022/06/20 00:11:22;;;;;;;13.30;8.90;;;25.70;62.70;;;;;;7371871;19;20392;-41
2022/06/20 00:13:56;;;;;;;9.17;7.60;;;25.80;63.00;;;;;;7369592;19;20391;-41
2022/06/20 00:16:28;;;;;;;14.63;7.10;;;25.80;63.00;;;;;;7368275;19;20392;-41
2022/06/20 00:18:58;;;;;;;9.00;7.50;;;25.70;63.70;;;;;;7370790;19;21004;-41
2022/06/20 00:21:29;;;;;;;14.00;8.10;;;25.80;63.70;;;;;;7377128;19;20399;-41
2022/06/20 00:23:58;;;;;;;12.40;7.80;;;25.90;63.50;;;;;;7375463;19;20427;-41
2022/06/20 00:26:30;;;;;;;16.20;7.73;;;25.90;64.00;;;;;;7376757;19;20997;-41
2022/06/20 00:29:01;;;;;;;12.17;8.20;;;25.10;67.30;;;;;;7361201;19;20368;-41
2022/06/20 00:31:33;;;;;;;12.30;8.60;;;25.10;67.80;;;;;;7364750;19;20387;-40
2022/06/20 00:34:03;;;;;;;10.00;7.17;;;25.10;68.30;;;;;;7371535;19;20356;-40
2022/06/20 00:36:33;;;;;;;15.27;8.30;;;24.90;70.00;;;;;;7373429;19;21531;-41
2022/06/20 00:39:02;;;;;;;11.83;7.77;;;25.00;69.60;;;;;;7369630;19;20376;-40
2022/06/20 00:41:34;;;;;;;12.53;7.77;;;24.90;71.40;;;;;;7370985;19;20866;-45
2022/06/20 00:44:04;;;;;;;9.30;7.87;;;25.20;69.80;;;;;;7370595;19;20376;-45
2022/06/20 00:46:59;;;;;;;10.93;8.10;;;25.10;69.70;;;;;;7359353;19;20424;-45
2022/06/20 00:49:53;;;;;;;10.33;7.30;;;25.30;69.30;;;;;;7371392;19;20423;-45
2022/06/20 00:52:46;;;;;;;9.57;7.30;;;25.60;67.30;;;;;;7370699;19;20941;-46
2022/06/20 00:55:38;;;;;;;9.07;7.83;;;25.90;66.70;;;;;;7372479;19;20504;-45
2022/06/20 00:58:34;;;;;;;9.20;7.30;;;26.20;65.00;;;;;;7371963;19;20383;-45
2022/06/20 01:01:30;;;;;;;13.60;7.57;;;26.20;65.00;;;;;;7368287;19;20411;-44
2022/06/20 01:04:25;;;;;;;12.17;7.93;;;26.10;66.10;;;;;;7372256;19;20403;-45
2022/06/20 01:07:19;;;;;;;11.40;8.27;;;25.80;67.40;;;;;;7377518;19;20401;-45
2022/06/20 01:10:11;;;;;;;17.50;9.57;;;25.30;71.40;;;;;;7371215;19;20415;-41
2022/06/20 01:13:03;;;;;;;15.47;10.77;;;25.00;94.50;;;;;;7363230;19;20432;-41
2022/06/20 01:15:53;;;;;;;22.40;11.80;;;23.40;99.90;;;;;;7364702;19;20923;-40
2022/06/20 01:18:43;;;;;;;24.30;13.17;;;22.90;99.90;;;;;;7362830;19;20475;-40
2022/06/20 01:21:36;;;;;;;19.03;12.50;;;22.50;99.90;;;;;;7362931;19;20781;-41
2022/06/20 01:24:32;;;;;;;23.10;13.03;;;22.20;99.90;;;;;;7355458;19;20419;-41
2022/06/20 01:27:33;;;;;;;23.10;15.27;;;21.90;99.90;;;;;;7367180;19;20819;-41
2022/06/20 01:30:25;;;;;;;20.20;13.60;;;22.10;99.90;;;;;;7357729;19;20477;-41
2022/06/20 01:33:15;;;;;;;20.20;13.43;;;22.20;99.90;;;;;;7373637;19;20396;-41
2022/06/20 01:39:03;;;;;;;20.17;12.87;;;22.30;99.90;;;;;;7371554;19;20377;-41
2022/06/20 01:45:57;;;;;;;12.43;11.10;;;22.60;99.90;;;;;;7367978;19;20427;-45
2022/06/20 01:48:22;;;;;;;14.33;10.70;;;22.30;99.90;;;;;;7365112;19;20423;-45
2022/06/20 01:51:16;;;;;;;18.67;10.90;;;21.50;99.90;;;;;;7365161;19;20388;-44
2022/06/20 01:54:05;;;;;;;19.93;11.17;;;21.50;99.90;;;;;;7370572;19;20922;-44
2022/06/20 01:56:56;;;;;;;16.17;11.43;;;21.10;99.90;;;;;;7368394;19;20372;-44
2022/06/20 01:59:53;;;;;;;15.00;11.63;;;21.20;99.90;;;;;;7369652;19;20407;-45
2022/06/20 02:02:47;;;;;;;18.70;11.80;;;21.20;99.90;;;;;;7367116;19;20393;-45
2022/06/20 02:05:36;;;;;;;13.50;10.90;;;21.20;99.90;;;;;;7367741;19;20412;-44
2022/06/20 02:08:26;;;;;;;17.10;11.20;;;21.40;99.90;;;;;;7368884;19;20411;-45
2022/06/20 02:11:21;;;;;;;23.00;12.10;;;21.80;99.90;;;;;;7365838;19;20384;-45
2022/06/20 02:14:17;;;;;;;17.07;11.07;;;21.90;99.90;;;;;;7368304;19;21077;-44
2022/06/20 02:17:10;;;;;;;17.47;10.30;;;21.70;99.90;;;;;;7367351;19;20391;-44
2022/06/20 02:20:05;;;;;;;13.40;9.40;;;21.90;99.90;;;;;;7353245;19;20507;-45
2022/06/20 02:22:54;;;;;;;17.33;10.00;;;21.70;99.90;;;;;;7344168;19;20390;-44
2022/06/20 02:25:44;;;;;;;17.40;9.33;;;21.40;99.90;;;;;;7368069;19;20383;-44
2022/06/20 02:28:37;;;;;;;20.67;10.50;;;21.70;99.90;;;;;;7374616;19;20456;-44
2022/06/20 02:31:25;;;;;;;15.67;9.90;;;22.10;99.90;;;;;;7368731;19;20400;-45
2022/06/20 02:34:14;;;;;;;19.03;9.53;;;21.80;99.90;;;;;;7366140;19;20399;-44
2022/06/20 02:37:09;;;;;;;16.53;9.73;;;21.60;99.90;;;;;;7369990;19;20427;-44
2022/06/20 02:40:02;;;;;;;20.90;9.37;;;21.60;99.90;;;;;;7357284;19;20400;-44
2022/06/20 02:42:54;;;;;;;13.97;9.70;;;21.80;99.90;;;;;;7368683;19;20416;-45
2022/06/20 02:45:43;;;;;;;18.93;9.13;;;21.90;99.90;;;;;;7368061;19;20414;-45
2022/06/20 02:48:33;;;;;;;11.30;8.30;;;21.90;99.90;;;;;;7363632;19;20387;-45
2022/06/20 02:51:27;;;;;;;20.50;11.57;;;21.70;99.90;;;;;;7368655;19;20426;-44
2022/06/20 02:54:20;;;;;;;33.20;13.00;;;21.30;99.90;;;;;;7373287;19;20902;-45
2022/06/20 02:57:16;;;;;;;21.07;14.10;;;20.50;99.90;;;;;;7375730;19;20436;-46
2022/06/20 03:00:08;;;;;;;21.80;13.20;;;19.80;99.90;;;;;;7379951;19;20744;-44
2022/06/20 03:03:00;;;;;;;20.87;13.67;;;19.80;99.90;;;;;;7379917;19;20532;-44
2022/06/20 03:05:47;;;;;;;24.80;14.00;;;19.90;99.90;;;;;;7373697;19;20390;-44
2022/06/20 03:08:35;;;;;;;21.97;15.47;;;20.20;99.90;;;;;;7374311;19;21278;-43
2022/06/20 03:11:31;;;;;;;23.23;14.57;;;20.40;99.90;;;;;;7368924;19;20415;-40
2022/06/20 03:14:22;;;;;;;22.50;14.40;;;20.60;99.90;;;;;;7373828;19;20912;-41
2022/06/20 03:17:12;;;;;;;26.23;14.67;;;20.80;99.90;;;;;;7374910;19;20460;-41
2022/06/20 03:20:04;;;;;;;33.13;15.20;;;20.70;99.90;;;;;;7375890;19;20482;-41
2022/06/20 03:22:57;;;;;;;24.10;15.90;;;20.90;99.90;;;;;;7376198;19;20390;-41
2022/06/20 03:25:45;;;;;;;18.30;13.40;;;20.90;99.90;;;;;;7378856;19;20379;-41
2022/06/20 03:28:38;;;;;;;21.80;14.53;;;20.60;99.90;;;;;;7382166;19;20418;-43
2022/06/20 03:31:27;;;;;;;18.50;14.90;;;20.60;99.90;;;;;;7374628;19;20379;-41
2022/06/20 03:34:15;;;;;;;24.13;14.27;;;20.60;99.90;;;;;;7367702;19;20441;-41
2022/06/20 03:37:06;;;;;;;22.07;13.60;;;20.50;99.90;;;;;;7379846;19;20402;-40
2022/06/20 03:39:56;;;;;;;19.60;15.60;;;20.60;99.90;;;;;;7375766;19;20387;-44
2022/06/20 03:42:47;;;;;;;25.10;16.20;;;20.90;99.90;;;;;;7378238;19;20419;-45
2022/06/20 03:45:43;;;;;;;23.93;16.00;;;21.30;99.90;;;;;;7376642;19;20367;-44
2022/06/20 03:48:36;;;;;;;21.80;15.20;;;21.40;99.90;;;;;;7378530;19;20389;-45
2022/06/20 03:51:28;;;;;;;21.70;15.00;;;21.70;99.90;;;;;;7380016;19;20404;-44
2022/06/20 03:54:24;;;;;;;19.77;14.47;;;22.00;99.90;;;;;;7371114;19;20383;-45
2022/06/20 03:57:22;;;;;;;26.67;16.43;;;22.20;99.90;;;;;;7376869;19;20400;-45
2022/06/20 04:00:14;;;;;;;23.57;15.30;;;22.30;99.90;;;;;;7375797;19;20979;-45
2022/06/20 04:03:10;;;;;;;20.40;15.00;;;22.50;99.90;;;;;;7378131;19;20403;-45
2022/06/20 04:06:03;;;;;;;19.37;13.57;;;22.50;99.90;;;;;;7379308;19;20387;-45
2022/06/20 04:12:08;;;;;;;17.87;12.83;;;22.20;99.90;;;;;;7379564;19;20387;-45
2022/06/20 04:15:02;;;;;;;18.70;14.57;;;21.90;99.90;;;;;;7379163;19;20768;-45
2022/06/20 04:21:09;;;;;;;21.17;12.70;;;22.30;99.90;;;;;;7360534;19;20420;-45
2022/06/20 04:24:04;;;;;;;16.97;12.10;;;22.30;99.90;;;;;;7375167;19;20482;-45
2022/06/20 04:27:00;;;;;;;12.63;9.97;;;22.50;99.90;;;;;;7379591;19;20380;-45
2022/06/20 04:29:53;;;;;;;16.37;11.40;;;22.50;99.90;;;;;;7368516;19;20395;-45
2022/06/20 04:32:50;;;;;;;14.90;10.77;;;22.60;99.90;;;;;;7378180;19;21361;-45
2022/06/20 04:35:41;;;;;;;16.73;11.93;;;22.40;99.90;;;;;;7368300;19;20464;-45
2022/06/20 04:38:37;;;;;;;15.50;11.00;;;21.90;99.90;;;;;;7374340;19;20397;-45
2022/06/20 04:41:37;;;;;;;17.40;11.50;;;21.60;99.90;;;;;;7371930;19;20399;-45
2022/06/20 04:44:31;;;;;;;19.90;11.90;;;21.10;99.90;;;;;;7375730;19;20919;-46
2022/06/20 04:47:35;;;;;;;18.93;11.47;;;21.20;99.90;;;;;;7373071;19;20463;-44
2022/06/20 04:50:26;;;;;;;20.13;12.00;;;21.60;99.90;;;;;;7375008;19;21101;-40
2022/06/20 04:53:17;;;;;;;17.53;11.17;;;21.80;99.90;;;;;;7378063;19;20478;-40
2022/06/20 04:56:12;;;;;;;15.37;11.20;;;21.70;99.90;;;;;;7380865;19;21095;-40
2022/06/20 04:59:05;;;;;;;18.43;12.03;;;21.40;99.90;;;;;;7369445;19;20633;-41
2022/06/20 05:01:53;;;;;;;16.00;11.00;;;21.30;99.90;;;;;;7376187;19;20408;-40
2022/06/20 05:04:46;;;;;;;16.23;12.17;;;21.40;99.90;;;;;;7374501;19;20473;-40
2022/06/20 05:07:38;;;;;;;16.93;12.60;;;21.30;99.90;;;;;;7377852;19;20788;-41
2022/06/20 05:10:32;;;;;;;14.47;10.93;;;21.50;99.90;;;;;;7379929;19;20411;-41
2022/06/20 05:13:26;;;;;;;13.00;10.43;;;21.80;99.90;;;;;;7374912;19;20735;-41
2022/06/20 05:16:19;;;;;;;16.37;11.93;;;22.00;99.90;;;;;;7373074;19;20391;-40
2022/06/20 05:19:10;;;;;;;14.87;12.00;;;22.30;99.90;;;;;;7378010;19;20379;-41
2022/06/20 05:22:02;;;;;;;22.23;10.67;;;22.60;99.90;;;;;;7377800;19;20393;-41
2022/06/20 05:24:52;;;;;;;14.67;10.37;;;22.60;99.90;;;;;;7373618;19;21322;-41
2022/06/20 05:27:46;;;;;;;15.03;9.77;;;22.60;99.90;;;;;;7376486;19;20401;-40
2022/06/20 05:30:38;;;;;;;17.23;10.07;;;22.40;99.90;;;;;;7375950;19;21231;-41
2022/06/20 05:33:31;;;;;;;13.60;10.10;;;22.40;99.90;;;;;;7363774;19;20448;-41
2022/06/20 05:36:06;;;;;;;17.20;9.73;;;21.80;99.90;;;;;;7379052;19;20372;-41
2022/06/20 05:38:39;;;;;;;11.40;9.90;;;21.80;99.90;;;;;;7374685;19;20384;-40
2022/06/20 05:41:16;;;;;;;15.20;11.27;;;21.90;99.90;;;;;;7372987;19;20376;-41
2022/06/20 05:43:46;;;;;;;13.10;10.10;;;22.00;99.90;;;;;;7378509;19;20417;-41
2022/06/20 05:46:28;;;;;;;11.40;10.23;;;22.30;99.90;;;;;;7375021;19;21241;-40
2022/06/20 05:49:02;;;;;;;15.00;10.17;;;21.70;99.90;;;;;;7375883;19;21633;-40
2022/06/20 05:51:35;;;;;;;13.73;10.40;;;21.60;99.90;;;;;;7376242;19;20415;-44
2022/06/20 05:54:10;;;;;;;15.20;9.90;;;21.20;99.90;;;;;;7373144;19;20383;-44
2022/06/20 05:56:44;;;;;;;12.40;10.70;;;21.00;99.90;;;;;;7376649;19;20379;-45
2022/06/20 05:59:40;;;;;;;16.10;9.40;;;21.20;99.90;;;;;;7371285;19;20974;-44
2022/06/20 06:02:22;;;;;;;17.60;10.40;;;21.60;99.90;;;;;;7369826;19;20384;-45
2022/06/20 06:05:01;;;;;;;13.43;8.63;;;21.80;99.90;;;;;;7370902;19;20408;-43
2022/06/20 06:07:35;;;;;;;17.27;10.40;;;21.90;99.90;;;;;;7370051;19;20376;-45
2022/06/20 06:10:19;;;;;;;11.80;8.70;;;22.10;99.90;;;;;;7374592;19;20380;-45
2022/06/20 06:12:52;;;;;;;9.53;7.23;;;22.30;99.90;;;;;;7370717;19;20375;-46
2022/06/20 06:15:37;;;;;;;12.47;8.43;;;22.50;99.90;;;;;;7375433;19;20387;-45
2022/06/20 06:18:15;;;;;;;14.63;9.23;;;22.60;99.90;;;;;;7368141;19;20380;-45
2022/06/20 06:20:49;;;;;;;10.97;8.80;;;22.50;99.90;;;;;;7372339;19;20909;-44
2022/06/20 06:23:19;;;;;;;11.77;7.93;;;21.80;99.90;;;;;;7368661;19;20961;-44
2022/06/20 06:25:48;;;;;;;13.63;8.00;;;22.10;99.90;;;;;;7374801;19;20986;-45
2022/06/20 06:28:20;;;;;;;14.47;8.77;;;22.50;99.90;;;;;;7373054;19;20418;-45
2022/06/20 06:30:56;;;;;;;13.33;9.07;;;22.50;99.90;;;;;;7371081;19;20395;-41
2022/06/20 06:33:31;;;;;;;13.93;9.10;;;22.50;99.90;;;;;;7377425;19;20379;-41
2022/06/20 06:36:07;;;;;;;17.40;10.63;;;22.70;99.90;;;;;;7368757;19;20371;-42
2022/06/20 06:38:45;;;;;;;12.10;9.20;;;22.90;99.90;;;;;;7373387;19;20391;-42
2022/06/20 06:41:21;;;;;;;16.83;10.20;;;22.50;99.90;;;;;;7374995;19;20740;-39
2022/06/20 06:43:54;;;;;;;16.23;9.07;;;21.90;99.90;;;;;;7374865;19;20380;-41
2022/06/20 06:46:29;;;;;;;11.93;8.97;;;22.50;99.90;;;;;;7357716;19;21127;-41
2022/06/20 06:49:24;;;;;;;15.10;9.70;;;22.70;99.90;;;;;;7367074;19;20384;-41
2022/06/20 06:52:01;;;;;;;11.83;7.77;;;22.90;99.90;;;;;;7364404;19;20954;-41
2022/06/20 06:54:53;;;;;;;14.80;8.77;;;23.40;99.90;;;;;;7366377;19;20372;-42
2022/06/20 06:57:28;;;;;;;15.70;8.90;;;23.90;99.90;;;;;;7372374;19;20376;-41
2022/06/20 07:00:21;;;;;;;19.43;10.33;;;24.00;99.90;;;;;;7370475;19;20423;-41
2022/06/20 07:02:55;;;;;;;11.73;9.33;;;24.10;99.90;;;;;;7361281;19;20372;-41
2022/06/20 07:05:33;;;;;;;10.70;9.03;;;24.00;99.90;;;;;;7348245;19;20420;-45
2022/06/20 07:08:12;;;;;;;11.07;9.00;;;24.20;99.90;;;;;;7365624;19;20386;-46
2022/06/20 07:10:49;;;;;;;13.57;9.20;;;24.40;99.90;;;;;;7366585;19;20403;-45
2022/06/20 07:13:30;;;;;;;16.27;9.83;;;24.60;99.90;;;;;;7368143;19;20380;-46
2022/06/20 07:16:03;;;;;;;15.63;9.60;;;24.80;99.90;;;;;;7368283;19;20395;-46
2022/06/20 07:18:44;;;;;;;15.10;10.20;;;25.00;99.90;;;;;;7353726;19;21111;-46
2022/06/20 07:21:22;;;;;;;15.87;9.67;;;25.20;99.90;;;;;;7362005;19;20965;-45
2022/06/20 07:23:57;;;;;;;15.30;10.30;;;25.30;99.90;;;;;;7353656;19;20384;-45
2022/06/20 07:26:31;;;;;;;13.80;9.73;;;25.10;99.90;;;;;;7355395;19;20379;-45
2022/06/20 07:29:05;;;;;;;12.17;9.00;;;25.20;99.90;;;;;;7366447;19;20373;-44
2022/06/20 07:31:39;;;;;;;11.83;7.63;;;25.30;99.90;;;;;;7356451;19;20376;-44
2022/06/20 07:34:15;;;;;;;13.13;7.77;;;25.70;99.90;;;;;;7364851;19;20376;-45
2022/06/20 07:36:50;;;;;;;11.60;5.87;;;26.10;99.90;;;;;;7369424;19;20391;-44
2022/06/20 07:39:24;;;;;;;8.10;7.10;;;26.40;99.90;;;;;;7368431;19;21063;-44
2022/06/20 07:41:58;;;;;;;13.40;7.67;;;26.50;99.90;;;;;;7378550;19;20382;-45
2022/06/20 07:44:34;;;;;;;8.73;6.53;;;26.60;99.90;;;;;;7375614;19;21234;-44
2022/06/20 07:47:10;;;;;;;10.17;6.60;;;26.60;99.90;;;;;;7374670;19;20982;-45
2022/06/20 07:49:49;;;;;;;11.83;7.83;;;26.80;98.10;;;;;;7376237;19;20435;-46
2022/06/20 07:52:26;;;;;;;11.53;6.53;;;26.80;97.30;;;;;;7374975;19;20782;-44
2022/06/20 07:55:00;;;;;;;8.13;6.37;;;27.10;97.50;;;;;;7375917;19;20375;-42
2022/06/20 07:57:36;;;;;;;9.90;7.67;;;27.30;95.70;;;;;;7366140;19;20391;-42
2022/06/20 08:00:10;;;;;;;9.53;7.10;;;27.50;96.20;;;;;;7374015;19;20419;-43
2022/06/20 08:02:44;;;;;;;12.43;10.67;;;27.30;95.70;;;;;;7377834;19;20946;-42
2022/06/20 08:05:18;;;;;;;16.23;12.10;;;27.40;95.90;;;;;;7376793;19;20415;-43
2022/06/20 08:07:57;;;;;;;12.23;8.40;;;27.70;94.80;;;;;;7367660;19;20418;-43
2022/06/20 08:10:32;;;;;;;11.03;7.27;;;27.70;92.20;;;;;;7369605;19;20380;-42
2022/06/20 08:13:09;;;;;;;16.80;11.90;;;28.00;92.40;;;;;;7371217;19;21410;-43
2022/06/20 08:15:44;;;;;;;10.70;8.30;;;28.30;91.70;;;;;;7378747;19;20394;-42
2022/06/20 08:18:13;;;;;;;13.50;9.30;;;28.30;90.50;;;;;;7376564;19;20927;-42
2022/06/20 08:20:48;;;;;;;6.90;5.80;;;28.50;86.60;;;;;;7378219;19;20415;-42
2022/06/20 08:23:24;;;;;;;9.00;6.30;;;28.60;84.30;;;;;;7373925;19;20384;-43
2022/06/20 08:25:57;;;;;;;8.23;6.90;;;28.70;82.50;;;;;;7381300;19;20380;-43
2022/06/20 08:28:37;;;;;;;13.67;8.50;;;28.70;75.30;;;;;;7374709;19;20403;-43
2022/06/20 08:31:16;;;;;;;9.27;6.73;;;28.80;74.10;;;;;;7374203;19;20965;-39
2022/06/20 08:33:53;;;;;;;9.93;5.90;;;28.60;72.40;;;;;;7365697;19;21592;-40
2022/06/20 08:36:29;;;;;;;8.30;6.13;;;28.60;72.40;;;;;;7370505;19;20395;-40
2022/06/20 08:39:08;;;;;;;8.37;6.40;;;28.70;71.00;;;;;;7376620;19;20380;-39
2022/06/20 08:42:03;;;;;;;8.93;5.90;;;28.90;68.40;;;;;;7376334;19;21483;-40
2022/06/20 08:45:00;;;;;;;8.67;5.90;;;28.80;67.70;;;;;;7377531;19;20383;-40
2022/06/20 08:48:00;;;;;;;8.07;6.40;;;29.00;69.60;;;;;;7373429;19;20432;-39
2022/06/20 08:50:59;;;;;;;10.30;6.00;;;29.10;67.70;;;;;;7376887;19;20380;-40
2022/06/20 08:54:14;;;;;;;15.53;6.27;;;29.30;66.40;;;;;;7375390;19;20360;-40
2022/06/20 08:56:54;;;;;;;13.40;6.63;;;29.50;64.80;;;;;;7375797;19;20439;-40
2022/06/20 08:59:43;;;;;;;8.20;5.57;;;29.50;61.90;;;;;;7375567;19;21047;-40
2022/06/20 09:02:27;;;;;;;9.27;5.60;;;29.60;63.10;;;;;;7379250;19;20416;-40
2022/06/20 09:05:10;;;;;;;8.87;6.07;;;29.80;62.00;;;;;;7377604;19;20381;-40
2022/06/20 09:08:15;;;;;;;9.27;5.93;;;30.00;62.50;;;;;;7376961;19;20419;-40
2022/06/20 09:11:01;;;;;;;8.30;5.80;;;30.10;61.10;;;;;;7378446;19;20384;-40
2022/06/20 09:14:02;;;;;;;9.50;5.20;;;30.40;60.00;;;;;;7376412;19;20375;-40
2022/06/20 09:16:43;;;;;;;7.50;5.70;;;30.80;58.30;;;;;;7377292;19;21307;-40
2022/06/20 09:19:27;;;;;;;7.07;5.30;;;30.90;57.40;;;;;;7375041;19;20372;-40
2022/06/20 09:22:09;;;;;;;6.60;5.70;;;31.00;56.90;;;;;;7375719;19;20368;-40
2022/06/20 09:24:56;;;;;;;8.40;6.00;;;30.80;58.20;;;;;;7377405;19;20764;-40
2022/06/20 09:27:39;;;;;;;7.90;5.07;;;31.10;58.00;;;;;;7378432;19;20372;-40
2022/06/20 09:30:16;;;;;;;8.70;5.10;;;31.20;57.00;;;;;;7371043;19;20540;-41
2022/06/20 09:33:15;;;;;;;8.13;5.80;;;31.60;56.50;;;;;;7374202;19;20400;-41
2022/06/20 09:36:15;;;;;;;7.73;5.60;;;31.90;54.90;;;;;;7374981;19;20877;-40
2022/06/20 09:38:56;;;;;;;7.43;6.10;;;31.90;53.50;;;;;;7374451;19;20416;-41
2022/06/20 09:41:36;;;;;;;8.53;5.97;;;32.20;54.00;;;;;;7376569;19;21115;-39
2022/06/20 09:44:21;;;;;;;8.07;5.70;;;32.60;52.30;;;;;;7377044;19;20380;-39
2022/06/20 09:47:04;;;;;;;7.00;5.00;;;32.90;51.40;;;;;;7377485;19;20825;-39
2022/06/20 09:49:42;;;;;;;8.70;5.80;;;33.10;51.10;;;;;;7371460;19;20373;-40
2022/06/20 09:52:21;;;;;;;7.20;6.00;;;33.40;50.70;;;;;;7373685;19;20383;-40
2022/06/20 09:54:59;;;;;;;10.07;6.30;;;33.30;50.10;;;;;;7368312;19;20407;-40
2022/06/20 09:57:40;;;;;;;10.30;6.13;;;32.70;50.00;;;;;;7374530;19;20794;-40
2022/06/20 10:00:19;;;;;;;7.20;6.10;;;32.10;51.60;;;;;;7373914;19;20387;-40
2022/06/20 10:03:01;;;;;;;8.77;5.50;;;31.60;53.40;;;;;;7369862;19;20375;-40
2022/06/20 10:05:42;;;;;;;8.20;6.27;;;31.60;52.60;;;;;;7374078;19;20715;-40
2022/06/20 10:08:28;;;;;;;9.20;6.23;;;31.50;52.90;;;;;;7372198;19;20375;-41
2022/06/20 10:11:06;;;;;;;12.50;5.37;;;31.30;53.60;;;;;;7375229;19;20384;-43
2022/06/20 10:13:42;;;;;;;7.80;5.77;;;31.60;52.80;;;;;;7372734;19;20921;-42
2022/06/20 10:16:22;;;;;;;7.87;5.23;;;31.80;52.40;;;;;;7378035;19;20388;-42
2022/06/20 10:19:00;;;;;;;9.50;5.93;;;32.20;50.90;;;;;;7374781;19;20384;-42
2022/06/20 10:21:38;;;;;;;8.47;5.80;;;32.20;51.50;;;;;;7377475;19;20387;-43
2022/06/20 10:24:27;;;;;;;12.27;6.30;;;32.50;51.00;;;;;;7372735;19;20428;-41
2022/06/20 10:27:11;;;;;;;9.53;5.40;;;32.60;50.20;;;;;;7370796;19;20416;-43
2022/06/20 10:29:57;;;;;;;6.80;5.10;;;32.30;50.40;;;;;;7371967;19;20380;-43
2022/06/20 10:32:47;;;;;;;10.03;5.37;;;31.90;51.40;;;;;;7373925;19;20390;-42
2022/06/20 10:35:20;;;;;;;9.77;5.50;;;31.90;51.50;;;;;;7351360;19;20364;-43
2022/06/20 10:38:03;;;;;;;7.70;5.77;;;32.30;50.60;;;;;;7372283;19;20384;-42
2022/06/20 10:40:41;;;;;;;9.00;5.83;;;32.20;50.10;;;;;;7369226;19;20412;-39
2022/06/20 10:43:14;;;;;;;7.73;4.80;;;31.90;50.80;;;;;;7376011;19;21285;-39
2022/06/20 10:45:48;;;;;;;6.57;4.83;;;31.90;51.10;;;;;;7376662;19;20387;-39
2022/06/20 10:48:38;;;;;;;10.43;5.50;;;31.70;50.50;;;;;;7368014;19;20485;-39
2022/06/20 10:51:14;;;;;;;8.70;5.53;;;31.50;51.70;;;;;;7373934;19;21072;-39
2022/06/20 10:53:53;;;;;;;8.93;5.53;;;31.50;51.90;;;;;;7374693;19;21535;-39
2022/06/20 10:56:30;;;;;;;5.20;4.07;;;31.30;51.60;;;;;;7367480;19;20383;-39
2022/06/20 10:59:19;;;;;;;7.03;4.83;;;31.10;49.90;;;;;;7370855;19;20384;-40
2022/06/20 11:01:53;;;;;;;6.83;4.17;;;31.00;49.00;;;;;;7372667;19;21033;-40
2022/06/20 11:04:55;;;;;;;5.93;4.00;;;30.90;50.00;;;;;;7372260;19;20400;-40
2022/06/20 11:07:34;;;;;;;6.30;4.83;;;30.60;49.80;;;;;;7374524;19;20375;-40
2022/06/20 11:10:16;;;;;;;5.47;4.80;;;30.80;49.80;;;;;;7373857;19;20372;-40
2022/06/20 11:12:55;;;;;;;6.23;4.70;;;31.10;49.80;;;;;;7371743;19;20758;-40
2022/06/20 11:15:34;;;;;;;7.77;4.60;;;31.20;49.30;;;;;;7379282;19;20403;-40
2022/06/20 11:18:18;;;;;;;7.00;5.20;;;30.90;49.80;;;;;;7379894;19;20368;-39
2022/06/20 11:20:57;;;;;;;7.60;4.30;;;30.60;50.30;;;;;;7379161;19;20989;-40
2022/06/20 11:23:37;;;;;;;9.63;5.10;;;30.30;50.20;;;;;;7380011;19;20905;-40
2022/06/20 11:26:15;;;;;;;8.17;5.73;;;30.20;50.60;;;;;;7380267;19;21094;-40
2022/06/20 11:29:08;;;;;;;11.80;5.50;;;30.00;52.20;;;;;;7377502;19;20380;-40
2022/06/20 11:31:46;;;;;;;6.77;5.30;;;30.00;52.80;;;;;;7378989;19;20757;-40
2022/06/20 11:34:35;;;;;;;8.40;5.00;;;30.10;52.90;;;;;;7377740;19;20398;-40
2022/06/20 11:37:20;;;;;;;7.27;5.13;;;30.00;52.80;;;;;;7380219;19;21715;-40
2022/06/20 11:40:03;;;;;;;6.77;5.10;;;29.80;53.60;;;;;;7380716;19;20776;-42
2022/06/20 11:43:02;;;;;;;7.20;5.70;;;29.50;54.30;;;;;;7379010;19;20708;-43
2022/06/20 11:45:47;;;;;;;8.20;6.50;;;29.20;54.60;;;;;;7382141;19;20805;-43
2022/06/20 11:48:26;;;;;;;8.50;5.20;;;29.00;55.90;;;;;;7379654;19;20380;-43
2022/06/20 11:51:04;;;;;;;12.63;6.10;;;29.60;54.90;;;;;;7379295;19;20933;-43
2022/06/20 11:53:45;;;;;;;10.07;5.80;;;29.60;54.80;;;;;;7379063;19;20388;-43
2022/06/20 11:56:22;;;;;;;8.10;5.40;;;29.60;55.00;;;;;;7370798;19;20368;-43
2022/06/20 11:59:13;;;;;;;9.70;5.33;;;29.30;55.70;;;;;;7378706;19;20396;-42
2022/06/20 12:01:49;;;;;;;11.10;5.57;;;29.50;55.70;;;;;;7376691;19;20388;-43
2022/06/20 12:04:24;;;;;;;6.47;5.00;;;29.30;55.70;;;;;;7381046;19;20472;-43
2022/06/20 12:07:01;;;;;;;8.57;6.10;;;29.40;55.30;;;;;;7377523;19;20391;-43
2022/06/20 12:09:42;;;;;;;7.00;4.57;;;29.50;55.50;;;;;;7381430;19;20380;-44
2022/06/20 12:12:26;;;;;;;8.80;5.00;;;29.80;54.40;;;;;;7369017;19;20434;-43
2022/06/20 12:15:17;;;;;;;10.83;4.87;;;29.90;53.60;;;;;;7381531;19;20423;-43
2022/06/20 12:17:54;;;;;;;8.50;4.97;;;29.70;53.50;;;;;;7367908;19;20387;-43
2022/06/20 12:23:28;;;;;;;6.10;4.03;;;29.00;54.00;;;;;;7369740;19;20372;-43
2022/06/20 12:26:06;;;;;;;6.80;4.07;;;28.70;55.30;;;;;;7367762;19;20969;-43
2022/06/20 12:28:39;;;;;;;3.63;3.00;;;28.60;55.70;;;;;;7368455;19;20472;-42
2022/06/20 12:31:18;;;;;;;7.50;3.43;;;28.70;54.30;;;;;;7369873;19;20408;-42
2022/06/20 12:33:51;;;;;;;6.03;3.73;;;28.80;53.40;;;;;;7370096;19;20408;-42
2022/06/20 12:36:27;;;;;;;5.23;3.73;;;28.80;53.20;;;;;;7374469;19;20384;-42
2022/06/20 12:39:02;;;;;;;5.23;3.53;;;29.00;54.80;;;;;;7374553;19;20352;-42
2022/06/20 12:41:38;;;;;;;6.80;4.00;;;29.20;55.00;;;;;;7368624;19;20411;-43
2022/06/20 12:44:20;;;;;;;12.73;4.50;;;29.80;55.00;;;;;;7376807;19;20376;-42
2022/06/20 12:47:03;;;;;;;9.67;5.30;;;30.20;54.90;;;;;;7375562;19;20424;-43
2022/06/20 12:49:58;;;;;;;8.90;4.40;;;30.80;53.40;;;;;;7375622;19;20379;-42
2022/06/20 12:52:39;;;;;;;9.20;4.70;;;31.00;51.90;;;;;;7371307;19;20376;-43
2022/06/20 12:55:29;;;;;;;6.23;3.97;;;30.90;52.50;;;;;;7376596;19;20919;-44
2022/06/20 12:58:19;;;;;;;4.90;3.87;;;30.70;53.20;;;;;;7365878;19;20453;-44
2022/06/20 13:00:53;;;;;;;6.57;4.10;;;30.20;53.50;;;;;;7366196;19;20420;-42
2022/06/20 13:03:49;;;;;;;9.80;5.23;;;29.80;54.80;;;;;;7362820;19;20372;-43
2022/06/20 13:06:45;;;;;;;10.80;5.07;;;29.40;55.20;;;;;;7368731;19;20490;-43
2022/06/20 13:09:46;;;;;;;11.00;5.63;;;29.40;55.60;;;;;;7372576;19;20953;-42
2022/06/20 13:12:27;;;;;;;8.10;5.07;;;29.00;56.30;;;;;;7377238;19;20379;-41
2022/06/20 13:15:31;;;;;;;6.10;4.60;;;28.70;56.90;;;;;;7377326;19;20395;-44
2022/06/20 13:18:17;;;;;;;8.40;4.60;;;28.90;57.10;;;;;;7345167;19;20423;-41
2022/06/20 13:20:54;;;;;;;9.17;5.23;;;29.10;56.60;;;;;;7367964;19;20417;-42
2022/06/20 13:23:44;;;;;;;6.87;5.20;;;28.70;57.20;;;;;;7372401;19;20371;-44
2022/06/20 13:26:24;;;;;;;5.83;4.87;;;28.50;58.50;;;;;;7375729;19;20380;-44
2022/06/20 13:29:01;;;;;;;6.87;4.70;;;28.50;58.30;;;;;;7373849;19;20424;-42
2022/06/20 13:31:42;;;;;;;6.30;5.00;;;28.50;58.30;;;;;;7366044;19;20368;-42
2022/06/20 13:34:20;;;;;;;7.93;5.10;;;28.20;59.80;;;;;;7368781;19;20414;-43
2022/06/20 13:36:59;;;;;;;8.30;5.07;;;28.20;59.70;;;;;;7360308;19;20372;-43
2022/06/20 13:39:37;;;;;;;8.17;5.23;;;28.20;60.10;;;;;;7368635;19;20956;-42
2022/06/20 13:42:18;;;;;;;7.20;4.70;;;28.20;59.80;;;;;;7369992;19;20368;-43
2022/06/20 13:44:54;;;;;;;10.43;4.90;;;28.10;60.90;;;;;;7367913;19;20793;-42
2022/06/20 13:47:32;;;;;;;6.37;4.57;;;27.90;60.50;;;;;;7374428;19;20437;-43
2022/06/20 13:50:22;;;;;;;7.30;4.93;;;27.60;61.80;;;;;;7373510;19;20367;-39
2022/06/20 13:52:59;;;;;;;9.37;4.83;;;27.40;63.30;;;;;;7373900;19;20909;-39
2022/06/20 13:55:35;;;;;;;5.13;4.40;;;27.20;65.00;;;;;;7370664;19;20481;-40
2022/06/20 13:58:13;;;;;;;6.13;4.30;;;27.30;65.20;;;;;;7376915;19;20947;-39
2022/06/20 14:00:44;;;;;;;8.03;5.03;;;26.90;66.30;;;;;;7374248;19;20979;-39
2022/06/20 14:03:24;;;;;;;6.50;4.40;;;26.70;68.10;;;;;;7364360;19;20380;-40
2022/06/20 14:06:07;;;;;;;13.40;5.20;;;26.70;67.80;;;;;;7378513;19;20404;-39
2022/06/20 14:08:37;;;;;;;6.60;4.53;;;26.70;68.50;;;;;;7369567;19;20379;-39
2022/06/20 14:11:13;;;;;;;5.40;4.33;;;26.90;67.60;;;;;;7370980;19;20816;-39
2022/06/20 14:13:49;;;;;;;7.90;4.70;;;26.80;68.10;;;;;;7376465;19;20372;-39
2022/06/20 14:16:23;;;;;;;6.77;4.50;;;26.90;68.50;;;;;;7374148;19;20383;-39
2022/06/20 14:19:01;;;;;;;5.70;4.40;;;26.70;68.00;;;;;;7373158;19;20408;-39